sensor_id;sensor_type;location;lat;lon;timestamp;P1;durP1;ratioP1;P2;durP2;ratioP2
52180;SDS011;38158;53.338;6.514;2023-01-29T00:01:28;13.43;;;8.30;;
52180;SDS011;38158;53.338;6.514;2023-01-29T00:03:54;13.20;;;7.47;;
52180;SDS011;38158;53.338;6.514;2023-01-29T00:06:20;12.93;;;8.00;;
52180;SDS011;38158;53.338;6.514;2023-01-29T00:08:47;14.95;;;8.45;;
52180;SDS011;38158;53.338;6.514;2023-01-29T00:11:14;13.37;;;7.90;;
52180;SDS011;38158;53.338;6.514;2023-01-29T00:13:41;12.55;;;8.00;;
52180;SDS011;38158;53.338;6.514;2023-01-29T00:16:07;11.60;;;7.47;;
52180;SDS011;38158;53.338;6.514;2023-01-29T00:18:36;12.38;;;8.15;;
52180;SDS011;38158;53.338;6.514;2023-01-29T00:21:03;16.35;;;8.50;;
52180;SDS011;38158;53.338;6.514;2023-01-29T00:23:36;13.32;;;7.50;;
52180;SDS011;38158;53.338;6.514;2023-01-29T00:26:02;14.07;;;8.63;;
52180;SDS011;38158;53.338;6.514;2023-01-29T00:28:28;14.88;;;7.57;;
52180;SDS011;38158;53.338;6.514;2023-01-29T00:30:53;13.27;;;7.60;;
52180;SDS011;38158;53.338;6.514;2023-01-29T00:33:19;16.65;;;7.60;;
52180;SDS011;38158;53.338;6.514;2023-01-29T00:35:45;15.68;;;8.75;;
52180;SDS011;38158;53.338;6.514;2023-01-29T00:38:10;14.27;;;8.57;;
52180;SDS011;38158;53.338;6.514;2023-01-29T00:40:36;13.50;;;8.32;;
52180;SDS011;38158;53.338;6.514;2023-01-29T00:43:21;12.68;;;7.55;;
52180;SDS011;38158;53.338;6.514;2023-01-29T00:46:06;13.25;;;8.20;;
52180;SDS011;38158;53.338;6.514;2023-01-29T00:48:32;17.52;;;8.20;;
52180;SDS011;38158;53.338;6.514;2023-01-29T00:50:59;15.48;;;8.82;;
52180;SDS011;38158;53.338;6.514;2023-01-29T00:53:25;18.77;;;8.63;;
52180;SDS011;38158;53.338;6.514;2023-01-29T00:55:51;13.35;;;8.85;;
52180;SDS011;38158;53.338;6.514;2023-01-29T00:58:16;15.95;;;8.65;;
52180;SDS011;38158;53.338;6.514;2023-01-29T01:00:49;15.80;;;9.57;;
52180;SDS011;38158;53.338;6.514;2023-01-29T01:03:15;13.38;;;8.70;;
52180;SDS011;38158;53.338;6.514;2023-01-29T01:05:41;13.98;;;8.73;;
52180;SDS011;38158;53.338;6.514;2023-01-29T01:08:08;20.90;;;9.07;;
52180;SDS011;38158;53.338;6.514;2023-01-29T01:11:04;15.93;;;9.25;;
52180;SDS011;38158;53.338;6.514;2023-01-29T01:13:30;14.98;;;9.35;;
52180;SDS011;38158;53.338;6.514;2023-01-29T01:15:57;17.85;;;10.00;;
52180;SDS011;38158;53.338;6.514;2023-01-29T01:18:23;18.15;;;10.13;;
52180;SDS011;38158;53.338;6.514;2023-01-29T01:20:49;19.05;;;10.10;;
52180;SDS011;38158;53.338;6.514;2023-01-29T01:23:18;19.10;;;9.37;;
52180;SDS011;38158;53.338;6.514;2023-01-29T01:25:44;20.00;;;10.32;;
52180;SDS011;38158;53.338;6.514;2023-01-29T01:28:10;14.45;;;8.95;;
52180;SDS011;38158;53.338;6.514;2023-01-29T01:30:36;17.58;;;9.77;;
52180;SDS011;38158;53.338;6.514;2023-01-29T01:33:03;17.80;;;10.45;;
52180;SDS011;38158;53.338;6.514;2023-01-29T01:35:29;16.83;;;11.00;;
52180;SDS011;38158;53.338;6.514;2023-01-29T01:37:54;17.73;;;10.73;;
52180;SDS011;38158;53.338;6.514;2023-01-29T01:40:21;22.80;;;10.98;;
52180;SDS011;38158;53.338;6.514;2023-01-29T01:42:48;20.70;;;10.90;;
52180;SDS011;38158;53.338;6.514;2023-01-29T01:45:26;17.52;;;10.82;;
52180;SDS011;38158;53.338;6.514;2023-01-29T01:48:10;18.98;;;11.07;;
52180;SDS011;38158;53.338;6.514;2023-01-29T01:50:46;28.13;;;11.70;;
52180;SDS011;38158;53.338;6.514;2023-01-29T01:53:16;29.67;;;12.38;;
52180;SDS011;38158;53.338;6.514;2023-01-29T01:55:47;19.85;;;11.43;;
52180;SDS011;38158;53.338;6.514;2023-01-29T01:58:17;19.55;;;10.90;;
52180;SDS011;38158;53.338;6.514;2023-01-29T02:00:57;18.50;;;11.70;;
52180;SDS011;38158;53.338;6.514;2023-01-29T02:03:23;17.05;;;11.85;;
52180;SDS011;38158;53.338;6.514;2023-01-29T02:06:10;18.23;;;10.35;;
52180;SDS011;38158;53.338;6.514;2023-01-29T02:09:02;23.58;;;12.50;;
52180;SDS011;38158;53.338;6.514;2023-01-29T02:11:50;17.40;;;11.27;;
52180;SDS011;38158;53.338;6.514;2023-01-29T02:14:15;19.15;;;12.23;;
52180;SDS011;38158;53.338;6.514;2023-01-29T02:16:41;21.08;;;12.52;;
52180;SDS011;38158;53.338;6.514;2023-01-29T02:19:15;20.45;;;13.48;;
52180;SDS011;38158;53.338;6.514;2023-01-29T02:30:08;19.98;;;12.20;;
52180;SDS011;38158;53.338;6.514;2023-01-29T02:43:46;20.27;;;13.40;;
52180;SDS011;38158;53.338;6.514;2023-01-29T02:48:54;22.88;;;12.07;;
52180;SDS011;38158;53.338;6.514;2023-01-29T02:54:20;22.92;;;13.93;;
52180;SDS011;38158;53.338;6.514;2023-01-29T02:56:53;20.65;;;12.10;;
52180;SDS011;38158;53.338;6.514;2023-01-29T02:59:33;23.15;;;13.57;;
52180;SDS011;38158;53.338;6.514;2023-01-29T03:02:07;25.63;;;13.07;;
52180;SDS011;38158;53.338;6.514;2023-01-29T03:04:38;24.88;;;13.70;;
52180;SDS011;38158;53.338;6.514;2023-01-29T03:07:13;22.63;;;14.18;;
52180;SDS011;38158;53.338;6.514;2023-01-29T03:10:03;27.60;;;15.88;;
52180;SDS011;38158;53.338;6.514;2023-01-29T03:12:35;23.10;;;13.32;;
52180;SDS011;38158;53.338;6.514;2023-01-29T03:15:08;26.90;;;15.95;;
52180;SDS011;38158;53.338;6.514;2023-01-29T03:17:43;28.92;;;16.67;;
52180;SDS011;38158;53.338;6.514;2023-01-29T03:20:16;29.77;;;16.80;;
52180;SDS011;38158;53.338;6.514;2023-01-29T03:22:51;29.50;;;18.60;;
52180;SDS011;38158;53.338;6.514;2023-01-29T03:25:22;28.88;;;18.27;;
52180;SDS011;38158;53.338;6.514;2023-01-29T03:28:09;30.38;;;18.85;;
52180;SDS011;38158;53.338;6.514;2023-01-29T03:30:56;33.60;;;20.00;;
52180;SDS011;38158;53.338;6.514;2023-01-29T03:33:53;33.53;;;18.70;;
52180;SDS011;38158;53.338;6.514;2023-01-29T03:36:29;32.20;;;19.98;;
52180;SDS011;38158;53.338;6.514;2023-01-29T03:39:07;27.05;;;17.30;;
52180;SDS011;38158;53.338;6.514;2023-01-29T03:41:36;28.98;;;17.95;;
52180;SDS011;38158;53.338;6.514;2023-01-29T03:44:18;24.70;;;15.82;;
52180;SDS011;38158;53.338;6.514;2023-01-29T03:46:55;28.58;;;17.40;;
52180;SDS011;38158;53.338;6.514;2023-01-29T03:49:30;33.03;;;19.48;;
52180;SDS011;38158;53.338;6.514;2023-01-29T03:57:53;39.22;;;22.23;;
52180;SDS011;38158;53.338;6.514;2023-01-29T04:05:55;42.60;;;23.83;;
52180;SDS011;38158;53.338;6.514;2023-01-29T04:08:44;39.75;;;24.13;;
52180;SDS011;38158;53.338;6.514;2023-01-29T04:11:14;35.22;;;21.27;;
52180;SDS011;38158;53.338;6.514;2023-01-29T04:13:42;44.20;;;25.35;;
52180;SDS011;38158;53.338;6.514;2023-01-29T04:16:11;40.40;;;23.70;;
52180;SDS011;38158;53.338;6.514;2023-01-29T04:18:45;39.92;;;22.20;;
52180;SDS011;38158;53.338;6.514;2023-01-29T04:21:12;40.58;;;23.42;;
52180;SDS011;38158;53.338;6.514;2023-01-29T04:23:39;36.63;;;21.60;;
52180;SDS011;38158;53.338;6.514;2023-01-29T04:29:07;41.78;;;24.40;;
52180;SDS011;38158;53.338;6.514;2023-01-29T04:31:43;42.53;;;25.23;;
52180;SDS011;38158;53.338;6.514;2023-01-29T04:34:24;48.63;;;28.00;;
52180;SDS011;38158;53.338;6.514;2023-01-29T04:40:20;42.75;;;25.88;;
52180;SDS011;38158;53.338;6.514;2023-01-29T04:42:41;46.60;;;26.92;;
52180;SDS011;38158;53.338;6.514;2023-01-29T04:45:34;46.92;;;27.67;;
52180;SDS011;38158;53.338;6.514;2023-01-29T04:48:22;41.47;;;24.90;;
52180;SDS011;38158;53.338;6.514;2023-01-29T04:51:16;44.67;;;26.27;;
52180;SDS011;38158;53.338;6.514;2023-01-29T04:53:58;40.72;;;25.77;;
52180;SDS011;38158;53.338;6.514;2023-01-29T04:59:13;43.72;;;25.45;;
52180;SDS011;38158;53.338;6.514;2023-01-29T05:01:43;40.78;;;23.80;;
52180;SDS011;38158;53.338;6.514;2023-01-29T05:04:11;44.60;;;26.17;;
52180;SDS011;38158;53.338;6.514;2023-01-29T05:06:40;47.95;;;28.25;;
52180;SDS011;38158;53.338;6.514;2023-01-29T05:09:08;43.17;;;25.17;;
52180;SDS011;38158;53.338;6.514;2023-01-29T05:11:34;43.05;;;25.65;;
52180;SDS011;38158;53.338;6.514;2023-01-29T05:14:01;46.00;;;26.85;;
52180;SDS011;38158;53.338;6.514;2023-01-29T05:16:50;44.97;;;25.70;;
52180;SDS011;38158;53.338;6.514;2023-01-29T05:19:17;43.75;;;25.25;;
52180;SDS011;38158;53.338;6.514;2023-01-29T05:21:44;46.95;;;27.23;;
52180;SDS011;38158;53.338;6.514;2023-01-29T05:24:19;39.20;;;23.30;;
52180;SDS011;38158;53.338;6.514;2023-01-29T05:26:47;36.38;;;21.90;;
52180;SDS011;38158;53.338;6.514;2023-01-29T05:29:32;38.17;;;23.60;;
52180;SDS011;38158;53.338;6.514;2023-01-29T05:31:58;34.13;;;20.73;;
52180;SDS011;38158;53.338;6.514;2023-01-29T05:34:24;43.10;;;24.88;;
52180;SDS011;38158;53.338;6.514;2023-01-29T05:36:50;39.15;;;23.60;;
52180;SDS011;38158;53.338;6.514;2023-01-29T05:39:16;34.15;;;19.30;;
52180;SDS011;38158;53.338;6.514;2023-01-29T05:41:42;38.15;;;22.48;;
52180;SDS011;38158;53.338;6.514;2023-01-29T05:44:10;37.58;;;23.38;;
52180;SDS011;38158;53.338;6.514;2023-01-29T05:46:37;34.72;;;22.38;;
52180;SDS011;38158;53.338;6.514;2023-01-29T05:49:03;40.92;;;24.77;;
52180;SDS011;38158;53.338;6.514;2023-01-29T05:51:29;35.42;;;22.67;;
52180;SDS011;38158;53.338;6.514;2023-01-29T05:53:55;38.97;;;23.20;;
52180;SDS011;38158;53.338;6.514;2023-01-29T05:56:21;36.25;;;22.92;;
52180;SDS011;38158;53.338;6.514;2023-01-29T05:58:46;40.08;;;22.42;;
52180;SDS011;38158;53.338;6.514;2023-01-29T06:01:14;34.60;;;22.27;;
52180;SDS011;38158;53.338;6.514;2023-01-29T06:03:45;33.40;;;20.13;;
52180;SDS011;38158;53.338;6.514;2023-01-29T06:06:11;34.47;;;20.00;;
52180;SDS011;38158;53.338;6.514;2023-01-29T06:08:37;32.40;;;21.20;;
52180;SDS011;38158;53.338;6.514;2023-01-29T06:11:06;32.67;;;21.02;;
52180;SDS011;38158;53.338;6.514;2023-01-29T06:13:32;31.50;;;20.70;;
52180;SDS011;38158;53.338;6.514;2023-01-29T06:15:58;32.20;;;21.02;;
52180;SDS011;38158;53.338;6.514;2023-01-29T06:18:24;32.58;;;20.23;;
52180;SDS011;38158;53.338;6.514;2023-01-29T06:20:50;32.88;;;20.73;;
52180;SDS011;38158;53.338;6.514;2023-01-29T06:23:15;34.58;;;21.77;;
52180;SDS011;38158;53.338;6.514;2023-01-29T06:25:41;28.75;;;19.17;;
52180;SDS011;38158;53.338;6.514;2023-01-29T06:28:07;30.58;;;19.50;;
52180;SDS011;38158;53.338;6.514;2023-01-29T06:30:33;31.13;;;19.40;;
52180;SDS011;38158;53.338;6.514;2023-01-29T06:32:59;34.97;;;19.40;;
52180;SDS011;38158;53.338;6.514;2023-01-29T06:35:26;31.58;;;18.23;;
52180;SDS011;38158;53.338;6.514;2023-01-29T06:37:52;32.28;;;19.88;;
52180;SDS011;38158;53.338;6.514;2023-01-29T06:40:18;30.48;;;19.05;;
52180;SDS011;38158;53.338;6.514;2023-01-29T06:42:44;30.05;;;18.42;;
52180;SDS011;38158;53.338;6.514;2023-01-29T06:45:10;33.22;;;19.92;;
52180;SDS011;38158;53.338;6.514;2023-01-29T06:47:35;30.10;;;19.42;;
52180;SDS011;38158;53.338;6.514;2023-01-29T06:50:01;34.70;;;20.48;;
52180;SDS011;38158;53.338;6.514;2023-01-29T06:52:27;30.93;;;20.03;;
52180;SDS011;38158;53.338;6.514;2023-01-29T06:54:56;31.10;;;21.00;;
52180;SDS011;38158;53.338;6.514;2023-01-29T06:57:22;35.45;;;20.02;;
52180;SDS011;38158;53.338;6.514;2023-01-29T06:59:48;29.92;;;19.40;;
52180;SDS011;38158;53.338;6.514;2023-01-29T07:02:14;31.17;;;20.83;;
52180;SDS011;38158;53.338;6.514;2023-01-29T07:04:40;35.08;;;21.67;;
52180;SDS011;38158;53.338;6.514;2023-01-29T07:07:07;34.35;;;21.42;;
52180;SDS011;38158;53.338;6.514;2023-01-29T07:09:38;31.58;;;21.50;;
52180;SDS011;38158;53.338;6.514;2023-01-29T07:12:04;40.28;;;23.20;;
52180;SDS011;38158;53.338;6.514;2023-01-29T07:14:30;34.70;;;22.63;;
52180;SDS011;38158;53.338;6.514;2023-01-29T07:16:56;39.08;;;23.65;;
52180;SDS011;38158;53.338;6.514;2023-01-29T07:19:22;36.22;;;21.88;;
52180;SDS011;38158;53.338;6.514;2023-01-29T07:21:48;37.15;;;22.85;;
52180;SDS011;38158;53.338;6.514;2023-01-29T07:24:13;43.22;;;25.02;;
52180;SDS011;38158;53.338;6.514;2023-01-29T07:26:40;44.03;;;25.30;;
52180;SDS011;38158;53.338;6.514;2023-01-29T07:29:06;44.92;;;24.92;;
52180;SDS011;38158;53.338;6.514;2023-01-29T07:31:32;43.25;;;24.08;;
52180;SDS011;38158;53.338;6.514;2023-01-29T07:33:57;36.50;;;22.42;;
52180;SDS011;38158;53.338;6.514;2023-01-29T07:36:23;35.15;;;23.27;;
52180;SDS011;38158;53.338;6.514;2023-01-29T07:38:49;36.88;;;23.55;;
52180;SDS011;38158;53.338;6.514;2023-01-29T07:41:15;44.75;;;25.05;;
52180;SDS011;38158;53.338;6.514;2023-01-29T07:43:41;43.50;;;26.45;;
52180;SDS011;38158;53.338;6.514;2023-01-29T07:46:06;44.25;;;25.02;;
52180;SDS011;38158;53.338;6.514;2023-01-29T07:48:32;44.78;;;27.38;;
52180;SDS011;38158;53.338;6.514;2023-01-29T07:50:58;44.67;;;27.75;;
52180;SDS011;38158;53.338;6.514;2023-01-29T07:53:24;43.78;;;26.75;;
52180;SDS011;38158;53.338;6.514;2023-01-29T07:55:50;39.60;;;25.40;;
52180;SDS011;38158;53.338;6.514;2023-01-29T07:58:16;45.00;;;28.30;;
52180;SDS011;38158;53.338;6.514;2023-01-29T08:00:42;44.50;;;25.95;;
52180;SDS011;38158;53.338;6.514;2023-01-29T08:03:11;44.13;;;28.05;;
52180;SDS011;38158;53.338;6.514;2023-01-29T08:05:40;54.85;;;28.35;;
52180;SDS011;38158;53.338;6.514;2023-01-29T08:08:06;40.30;;;26.23;;
52180;SDS011;38158;53.338;6.514;2023-01-29T08:10:33;44.97;;;28.70;;
52180;SDS011;38158;53.338;6.514;2023-01-29T08:13:00;44.35;;;26.60;;
52180;SDS011;38158;53.338;6.514;2023-01-29T08:15:26;39.67;;;27.00;;
52180;SDS011;38158;53.338;6.514;2023-01-29T08:17:53;38.95;;;26.13;;
52180;SDS011;38158;53.338;6.514;2023-01-29T08:20:18;45.75;;;28.85;;
52180;SDS011;38158;53.338;6.514;2023-01-29T08:22:45;50.60;;;30.63;;
52180;SDS011;38158;53.338;6.514;2023-01-29T08:25:11;50.03;;;30.25;;
52180;SDS011;38158;53.338;6.514;2023-01-29T08:27:37;49.33;;;30.30;;
52180;SDS011;38158;53.338;6.514;2023-01-29T08:30:03;48.40;;;30.02;;
52180;SDS011;38158;53.338;6.514;2023-01-29T08:32:30;46.42;;;29.92;;
52180;SDS011;38158;53.338;6.514;2023-01-29T08:34:56;48.17;;;29.85;;
52180;SDS011;38158;53.338;6.514;2023-01-29T08:37:21;52.47;;;31.15;;
52180;SDS011;38158;53.338;6.514;2023-01-29T08:39:47;51.65;;;31.17;;
52180;SDS011;38158;53.338;6.514;2023-01-29T08:42:13;49.85;;;29.88;;
52180;SDS011;38158;53.338;6.514;2023-01-29T08:44:38;55.45;;;29.17;;
52180;SDS011;38158;53.338;6.514;2023-01-29T08:47:04;44.45;;;29.33;;
52180;SDS011;38158;53.338;6.514;2023-01-29T08:49:30;47.33;;;27.85;;
52180;SDS011;38158;53.338;6.514;2023-01-29T08:51:56;45.15;;;29.83;;
52180;SDS011;38158;53.338;6.514;2023-01-29T08:54:22;41.25;;;27.30;;
52180;SDS011;38158;53.338;6.514;2023-01-29T08:56:48;46.03;;;29.40;;
52180;SDS011;38158;53.338;6.514;2023-01-29T08:59:14;51.55;;;30.85;;
52180;SDS011;38158;53.338;6.514;2023-01-29T09:01:40;47.13;;;29.50;;
52180;SDS011;38158;53.338;6.514;2023-01-29T09:04:05;43.83;;;27.80;;
52180;SDS011;38158;53.338;6.514;2023-01-29T09:06:31;51.13;;;29.48;;
52180;SDS011;38158;53.338;6.514;2023-01-29T09:08:57;51.30;;;32.55;;
52180;SDS011;38158;53.338;6.514;2023-01-29T09:11:22;56.25;;;32.53;;
52180;SDS011;38158;53.338;6.514;2023-01-29T09:13:48;51.83;;;31.85;;
52180;SDS011;38158;53.338;6.514;2023-01-29T09:16:14;48.33;;;29.23;;
52180;SDS011;38158;53.338;6.514;2023-01-29T09:18:39;52.00;;;30.20;;
52180;SDS011;38158;53.338;6.514;2023-01-29T09:21:05;52.47;;;32.33;;
52180;SDS011;38158;53.338;6.514;2023-01-29T09:23:31;46.58;;;26.05;;
52180;SDS011;38158;53.338;6.514;2023-01-29T09:25:57;48.55;;;31.02;;
52180;SDS011;38158;53.338;6.514;2023-01-29T09:28:23;47.63;;;28.02;;
52180;SDS011;38158;53.338;6.514;2023-01-29T09:30:48;51.30;;;30.92;;
52180;SDS011;38158;53.338;6.514;2023-01-29T09:33:14;47.75;;;30.42;;
52180;SDS011;38158;53.338;6.514;2023-01-29T09:35:40;50.30;;;29.92;;
52180;SDS011;38158;53.338;6.514;2023-01-29T09:38:07;53.53;;;31.80;;
52180;SDS011;38158;53.338;6.514;2023-01-29T09:43:13;51.78;;;30.50;;
52180;SDS011;38158;53.338;6.514;2023-01-29T09:46:04;51.72;;;31.35;;
52180;SDS011;38158;53.338;6.514;2023-01-29T09:48:31;53.53;;;31.38;;
52180;SDS011;38158;53.338;6.514;2023-01-29T09:56:05;48.75;;;28.55;;
52180;SDS011;38158;53.338;6.514;2023-01-29T09:58:44;49.63;;;28.23;;
52180;SDS011;38158;53.338;6.514;2023-01-29T10:17:59;52.85;;;29.35;;
52180;SDS011;38158;53.338;6.514;2023-01-29T10:20:42;54.60;;;30.48;;
52180;SDS011;38158;53.338;6.514;2023-01-29T10:23:29;51.53;;;28.48;;
52180;SDS011;38158;53.338;6.514;2023-01-29T10:25:58;53.80;;;31.02;;
52180;SDS011;38158;53.338;6.514;2023-01-29T10:28:46;54.63;;;30.70;;
52180;SDS011;38158;53.338;6.514;2023-01-29T10:31:16;58.28;;;31.00;;
52180;SDS011;38158;53.338;6.514;2023-01-29T10:36:40;52.15;;;29.23;;
52180;SDS011;38158;53.338;6.514;2023-01-29T10:39:15;52.70;;;30.35;;
52180;SDS011;38158;53.338;6.514;2023-01-29T10:53:41;44.13;;;27.80;;
52180;SDS011;38158;53.338;6.514;2023-01-29T10:59:00;51.50;;;30.85;;
52180;SDS011;38158;53.338;6.514;2023-01-29T11:01:33;47.97;;;24.95;;
52180;SDS011;38158;53.338;6.514;2023-01-29T11:04:00;48.53;;;28.05;;
52180;SDS011;38158;53.338;6.514;2023-01-29T11:06:29;53.03;;;28.50;;
52180;SDS011;38158;53.338;6.514;2023-01-29T11:11:45;46.75;;;25.92;;
52180;SDS011;38158;53.338;6.514;2023-01-29T11:17:24;47.83;;;26.85;;
52180;SDS011;38158;53.338;6.514;2023-01-29T11:19:52;45.40;;;26.70;;
52180;SDS011;38158;53.338;6.514;2023-01-29T11:22:25;43.03;;;24.60;;
52180;SDS011;38158;53.338;6.514;2023-01-29T11:27:45;42.30;;;23.80;;
52180;SDS011;38158;53.338;6.514;2023-01-29T11:35:34;38.97;;;21.95;;
52180;SDS011;38158;53.338;6.514;2023-01-29T11:40:47;34.67;;;20.42;;
52180;SDS011;38158;53.338;6.514;2023-01-29T11:46:04;34.33;;;19.70;;
52180;SDS011;38158;53.338;6.514;2023-01-29T11:51:06;30.27;;;16.85;;
52180;SDS011;38158;53.338;6.514;2023-01-29T11:53:36;31.48;;;17.48;;
52180;SDS011;38158;53.338;6.514;2023-01-29T11:56:17;30.90;;;17.65;;
52180;SDS011;38158;53.338;6.514;2023-01-29T11:58:56;33.25;;;18.33;;
52180;SDS011;38158;53.338;6.514;2023-01-29T12:01:33;31.40;;;17.48;;
52180;SDS011;38158;53.338;6.514;2023-01-29T12:04:02;32.63;;;17.73;;
52180;SDS011;38158;53.338;6.514;2023-01-29T12:06:40;28.83;;;15.95;;
52180;SDS011;38158;53.338;6.514;2023-01-29T12:09:09;30.73;;;17.38;;
52180;SDS011;38158;53.338;6.514;2023-01-29T12:11:41;32.70;;;16.92;;
52180;SDS011;38158;53.338;6.514;2023-01-29T12:14:21;28.25;;;15.43;;
52180;SDS011;38158;53.338;6.514;2023-01-29T12:17:15;28.52;;;17.45;;
52180;SDS011;38158;53.338;6.514;2023-01-29T12:19:55;34.65;;;18.98;;
52180;SDS011;38158;53.338;6.514;2023-01-29T12:25:41;30.98;;;15.80;;
52180;SDS011;38158;53.338;6.514;2023-01-29T12:28:23;35.22;;;17.65;;
52180;SDS011;38158;53.338;6.514;2023-01-29T12:36:32;24.92;;;13.30;;
52180;SDS011;38158;53.338;6.514;2023-01-29T12:39:03;30.95;;;17.00;;
52180;SDS011;38158;53.338;6.514;2023-01-29T12:44:13;29.20;;;16.08;;
52180;SDS011;38158;53.338;6.514;2023-01-29T12:46:48;31.02;;;18.08;;
52180;SDS011;38158;53.338;6.514;2023-01-29T12:49:21;22.42;;;13.52;;
52180;SDS011;38158;53.338;6.514;2023-01-29T12:54:29;30.13;;;17.05;;
52180;SDS011;38158;53.338;6.514;2023-01-29T12:57:29;31.58;;;16.27;;
52180;SDS011;38158;53.338;6.514;2023-01-29T13:00:19;20.00;;;12.23;;
52180;SDS011;38158;53.338;6.514;2023-01-29T13:02:53;24.20;;;14.55;;
52180;SDS011;38158;53.338;6.514;2023-01-29T13:05:36;24.63;;;14.98;;
52180;SDS011;38158;53.338;6.514;2023-01-29T13:08:07;21.83;;;12.88;;
52180;SDS011;38158;53.338;6.514;2023-01-29T13:10:40;29.85;;;15.80;;
52180;SDS011;38158;53.338;6.514;2023-01-29T13:13:13;23.17;;;13.68;;
52180;SDS011;38158;53.338;6.514;2023-01-29T13:15:45;20.50;;;11.60;;
52180;SDS011;38158;53.338;6.514;2023-01-29T13:18:32;23.63;;;12.82;;
52180;SDS011;38158;53.338;6.514;2023-01-29T13:21:05;21.85;;;12.55;;
52180;SDS011;38158;53.338;6.514;2023-01-29T13:23:37;20.48;;;11.40;;
52180;SDS011;38158;53.338;6.514;2023-01-29T13:26:07;22.33;;;13.35;;
52180;SDS011;38158;53.338;6.514;2023-01-29T13:28:33;20.92;;;11.02;;
52180;SDS011;38158;53.338;6.514;2023-01-29T13:33:50;23.92;;;12.95;;
52180;SDS011;38158;53.338;6.514;2023-01-29T13:36:35;20.30;;;11.77;;
52180;SDS011;38158;53.338;6.514;2023-01-29T13:39:06;28.65;;;15.38;;
52180;SDS011;38158;53.338;6.514;2023-01-29T13:41:40;24.25;;;14.05;;
52180;SDS011;38158;53.338;6.514;2023-01-29T13:44:14;24.42;;;14.38;;
52180;SDS011;38158;53.338;6.514;2023-01-29T13:49:29;20.90;;;12.38;;
52180;SDS011;38158;53.338;6.514;2023-01-29T13:52:20;18.42;;;10.77;;
52180;SDS011;38158;53.338;6.514;2023-01-29T13:54:52;19.52;;;11.02;;
52180;SDS011;38158;53.338;6.514;2023-01-29T14:00:00;20.02;;;11.27;;
52180;SDS011;38158;53.338;6.514;2023-01-29T14:02:27;20.02;;;11.32;;
52180;SDS011;38158;53.338;6.514;2023-01-29T14:10:17;22.23;;;14.00;;
52180;SDS011;38158;53.338;6.514;2023-01-29T14:12:45;24.50;;;14.70;;
52180;SDS011;38158;53.338;6.514;2023-01-29T14:15:19;24.33;;;16.00;;
52180;SDS011;38158;53.338;6.514;2023-01-29T14:17:54;25.42;;;14.57;;
52180;SDS011;38158;53.338;6.514;2023-01-29T14:20:39;27.83;;;16.95;;
52180;SDS011;38158;53.338;6.514;2023-01-29T14:23:21;25.65;;;16.10;;
52180;SDS011;38158;53.338;6.514;2023-01-29T14:25:53;24.05;;;15.10;;
52180;SDS011;38158;53.338;6.514;2023-01-29T14:28:21;21.97;;;13.30;;
52180;SDS011;38158;53.338;6.514;2023-01-29T14:30:53;23.83;;;14.55;;
52180;SDS011;38158;53.338;6.514;2023-01-29T14:33:52;26.80;;;16.15;;
52180;SDS011;38158;53.338;6.514;2023-01-29T14:36:12;24.80;;;15.30;;
52180;SDS011;38158;53.338;6.514;2023-01-29T14:38:39;24.23;;;14.10;;
52180;SDS011;38158;53.338;6.514;2023-01-29T14:43:49;25.77;;;15.98;;
52180;SDS011;38158;53.338;6.514;2023-01-29T14:48:59;24.05;;;14.15;;
52180;SDS011;38158;53.338;6.514;2023-01-29T14:51:25;22.80;;;13.82;;
52180;SDS011;38158;53.338;6.514;2023-01-29T14:59:01;22.63;;;13.63;;
52180;SDS011;38158;53.338;6.514;2023-01-29T15:01:38;25.65;;;14.55;;
52180;SDS011;38158;53.338;6.514;2023-01-29T15:04:16;31.20;;;16.50;;
52180;SDS011;38158;53.338;6.514;2023-01-29T15:09:45;32.53;;;16.88;;
52180;SDS011;38158;53.338;6.514;2023-01-29T15:20:47;26.25;;;16.30;;
52180;SDS011;38158;53.338;6.514;2023-01-29T15:23:23;27.60;;;16.35;;
52180;SDS011;38158;53.338;6.514;2023-01-29T15:25:50;23.92;;;14.82;;
52180;SDS011;38158;53.338;6.514;2023-01-29T15:28:18;30.65;;;16.60;;
52180;SDS011;38158;53.338;6.514;2023-01-29T15:30:45;24.45;;;13.38;;
52180;SDS011;38158;53.338;6.514;2023-01-29T15:33:17;27.00;;;14.13;;
52180;SDS011;38158;53.338;6.514;2023-01-29T15:35:43;27.83;;;15.90;;
52180;SDS011;38158;53.338;6.514;2023-01-29T15:38:15;28.90;;;15.15;;
52180;SDS011;38158;53.338;6.514;2023-01-29T15:40:52;31.90;;;17.92;;
52180;SDS011;38158;53.338;6.514;2023-01-29T15:43:29;28.13;;;14.98;;
52180;SDS011;38158;53.338;6.514;2023-01-29T15:46:00;29.55;;;15.23;;
52180;SDS011;38158;53.338;6.514;2023-01-29T15:48:30;31.52;;;16.20;;
52180;SDS011;38158;53.338;6.514;2023-01-29T15:51:00;29.00;;;16.92;;
52180;SDS011;38158;53.338;6.514;2023-01-29T15:53:50;30.92;;;17.17;;
52180;SDS011;38158;53.338;6.514;2023-01-29T15:56:16;30.52;;;17.30;;
52180;SDS011;38158;53.338;6.514;2023-01-29T15:58:45;30.80;;;17.60;;
52180;SDS011;38158;53.338;6.514;2023-01-29T16:01:13;34.85;;;19.90;;
52180;SDS011;38158;53.338;6.514;2023-01-29T16:03:39;34.95;;;19.98;;
52180;SDS011;38158;53.338;6.514;2023-01-29T16:06:06;35.78;;;17.40;;
52180;SDS011;38158;53.338;6.514;2023-01-29T16:08:33;34.20;;;17.92;;
52180;SDS011;38158;53.338;6.514;2023-01-29T16:11:01;37.63;;;19.02;;
52180;SDS011;38158;53.338;6.514;2023-01-29T16:13:32;32.35;;;18.20;;
52180;SDS011;38158;53.338;6.514;2023-01-29T16:16:20;33.10;;;17.80;;
52180;SDS011;38158;53.338;6.514;2023-01-29T16:18:48;34.00;;;16.97;;
52180;SDS011;38158;53.338;6.514;2023-01-29T16:23:48;35.80;;;18.77;;
52180;SDS011;38158;53.338;6.514;2023-01-29T16:26:20;38.30;;;21.20;;
52180;SDS011;38158;53.338;6.514;2023-01-29T16:28:53;41.28;;;22.33;;
52180;SDS011;38158;53.338;6.514;2023-01-29T16:31:24;38.90;;;21.53;;
52180;SDS011;38158;53.338;6.514;2023-01-29T16:33:52;46.95;;;25.33;;
52180;SDS011;38158;53.338;6.514;2023-01-29T16:36:21;48.25;;;23.55;;
52180;SDS011;38158;53.338;6.514;2023-01-29T16:38:50;44.05;;;23.58;;
52180;SDS011;38158;53.338;6.514;2023-01-29T16:43:54;44.30;;;21.15;;
52180;SDS011;38158;53.338;6.514;2023-01-29T16:49:01;41.22;;;20.35;;
52180;SDS011;38158;53.338;6.514;2023-01-29T16:51:47;44.00;;;23.33;;
52180;SDS011;38158;53.338;6.514;2023-01-29T16:54:13;49.97;;;24.08;;
52180;SDS011;38158;53.338;6.514;2023-01-29T16:56:43;40.67;;;20.35;;
52180;SDS011;38158;53.338;6.514;2023-01-29T16:59:14;42.25;;;22.38;;
52180;SDS011;38158;53.338;6.514;2023-01-29T17:01:44;47.58;;;21.20;;
52180;SDS011;38158;53.338;6.514;2023-01-29T17:04:12;51.13;;;25.33;;
52180;SDS011;38158;53.338;6.514;2023-01-29T17:06:40;46.97;;;24.27;;
52180;SDS011;38158;53.338;6.514;2023-01-29T17:09:22;47.53;;;23.80;;
52180;SDS011;38158;53.338;6.514;2023-01-29T17:12:01;47.95;;;22.25;;
52180;SDS011;38158;53.338;6.514;2023-01-29T17:14:30;55.00;;;24.45;;
52180;SDS011;38158;53.338;6.514;2023-01-29T17:17:04;46.60;;;22.60;;
52180;SDS011;38158;53.338;6.514;2023-01-29T17:19:40;47.40;;;23.40;;
52180;SDS011;38158;53.338;6.514;2023-01-29T17:22:06;53.22;;;24.42;;
52180;SDS011;38158;53.338;6.514;2023-01-29T17:24:38;55.83;;;24.35;;
52180;SDS011;38158;53.338;6.514;2023-01-29T17:27:11;50.45;;;23.50;;
52180;SDS011;38158;53.338;6.514;2023-01-29T17:29:43;53.47;;;24.70;;
52180;SDS011;38158;53.338;6.514;2023-01-29T17:32:09;59.88;;;27.35;;